Welcome to MDBA River Data.

This website aims to give an overview only of flow and storage information for the River Murray system. Please note that some sites may be off-line and no data is shown. For information from other catchments please contact your relevant state water agency. More information is available at Who does what in the catchments.

Forecasts are only available for sites displaying the forecast symbol.

Some water levels are actually in metres AHD (Australian Height Datum), click individual sites for more details.

Scroll for more >

River gauges, storages, and weirs in the Murray–Darling Basin

Type Location Riversort descending Water level Flow Volume Release Water temp Salinity Rainfall
River Gauge Rochester Campaspe 1.67 m 13/04/2024 8:00 60 ML/Day 13/04/2024 8:00 Not measured Not measured 14.9°C 13/04/2024 7:00 509 μS/cm 13/04/2024 8:00 0.00 mm 13/04/2024 7:00 Full data
River Gauge Wilcania Darling 0.9 m 13/04/2024 8:00 613 ML/Day 13/04/2024 8:00 Not measured Not measured 18.4°C 13/04/2024 8:00 226.7 μS/cm 12/04/2024 8:00 Not measured Full data
Storage Menindee Lakes Darling Not measured Not measured 897 GL 12/04/2024 9:00 Not measured Not measured Not measured Not measured Full data
River Gauge Weir 32 Upstream Darling 1.53 m 13/04/2024 8:00 576 ML/Day 13/04/2024 8:00 Not measured Not measured 18.8°C 13/04/2024 8:00 756.5 μS/cm 13/04/2024 8:00 Not measured Full data
River Gauge Burtundy Darling 0.85 m 13/04/2024 8:00 558 ML/Day 13/04/2024 8:00 Not measured Not measured 17.5°C 13/04/2024 8:00 1232.4 μS/cm 12/04/2024 8:00 Not measured Full data
Weirs Steven's Weir Upstream Edward 4.7 m 13/04/2024 8:00 Not measured Not measured Not measured Not measured Not measured Not measured Full data
Weirs Steven's Weir Downstream Edward 0.92 m 13/04/2024 8:00 654 ML/Day 13/04/2024 8:00 Not measured Not measured 17.8°C 13/04/2024 8:00 73.8 μS/cm 12/04/2024 8:00 Not measured Full data
River Gauge McCoy Bridge Goulburn 2.08 m 13/04/2024 7:00 1992 ML/Day 13/04/2024 7:00 Not measured Not measured 16.4°C 13/04/2024 7:00 73.1 μS/cm 13/04/2024 7:00 Not measured Full data
River Gauge Bandiana Kiewa 0.99 m 13/04/2024 7:00 484 ML/Day 13/04/2024 7:00 Not measured Not measured 13.9°C 13/04/2024 7:00 40.6 μS/cm 13/04/2024 7:00 Not measured Full data
River Gauge Kerang Loddon 0.46 m 13/04/2024 7:00 381 ML/Day 13/04/2024 7:00 Not measured Not measured 15.4°C 13/04/2024 7:00 279.7 μS/cm 13/04/2024 7:00 Not measured Full data
River Gauge Hinnomunjie Mitta 0.68 m 13/04/2024 7:00 358 ML/Day 13/04/2024 7:00 Not measured Not measured 11.8°C 13/04/2024 7:00 67.9 μS/cm 13/04/2024 7:00 0.00 mm 13/04/2024 7:00 Full data
Storage Dartmouth Dam Mitta 482.77 m 13/04/2024 7:00 Not measured 3647 GL 13/04/2024 7:00 Not measured Not measured Not measured Not measured Full data
River Gauge Colemans Mitta 1.4 m 13/04/2024 7:00 977 ML/Day 13/04/2024 7:00 Not measured Not measured 10.4°C 13/04/2024 7:00 48 μS/cm 13/04/2024 7:00 Not measured Full data
River Gauge Tallandoon Mitta 1.67 m 13/04/2024 7:00 1242 ML/Day 13/04/2024 7:00 Not measured Not measured 11.4°C 13/04/2024 7:00 51.9 μS/cm 13/04/2024 7:00 Not measured Full data
River Gauge Redcliffs Murray Not measured Not measured Not measured Not measured Not measured 346.5 μS/cm 21/03/2024 9:00 Not measured Full data
River Gauge Barmah Murray 1.77 m 13/04/2024 7:00 4202 ML/Day 13/04/2024 7:00 Not measured Not measured Not measured Not measured Not measured Full data
River Gauge Biggara Murray 0.35 m 13/04/2024 8:00 303 ML/Day 13/04/2024 8:00 Not measured Not measured 11.3°C 13/04/2024 8:00 64.2 μS/cm 13/04/2024 8:00 0.00 mm 13/04/2024 7:00 Full data
River Gauge Bringenbrong Bridge Murray 1.69 m 13/04/2024 8:00 4901 ML/Day 13/04/2024 8:00 Not measured Not measured Not measured Not measured Not measured Full data
River Gauge Pinegrove Murray 1.13 m 12/04/2024 13:00 309 ML/Day 12/04/2024 13:00 Not measured Not measured 14.2°C 12/04/2024 13:00 80.8 μS/cm 12/04/2024 13:00 0.00 mm 12/04/2024 12:00 Full data
River Gauge Jingellic Murray 1.81 m 13/04/2024 7:00 5156 ML/Day 13/04/2024 7:00 Not measured Not measured 14.3°C 13/04/2024 7:00 36.3 μS/cm 13/04/2024 7:00 0.00 mm 13/04/2024 7:00 Full data
Storage Hume Dam Murray 186.1 m 13/04/2024 8:00 Not measured 1953 GL 13/04/2024 8:00 10689.5 ML/d13/04/2024 8:00 Not measured Not measured 0.00 mm 13/04/2024 8:00 Full data
River Gauge Doctors Point Murray 2.64 m 13/04/2024 8:00 11036 ML/Day 13/04/2024 8:00 Not measured Not measured 20°C 13/04/2024 8:00 157.4 μS/cm 13/04/2024 8:00 Not measured Full data
River Gauge Albury (Union Bridge) Murray 1.63 m 13/04/2024 8:00 Not measured Not measured Not measured 19.6°C 13/04/2024 8:00 57.8 μS/cm 13/04/2024 8:00 Not measured Full data
River Gauge Corowa Murray 2.15 m 13/04/2024 8:00 8137 ML/Day 13/04/2024 8:00 Not measured Not measured 18.6°C 13/04/2024 8:00 59.5 μS/cm 13/04/2024 8:00 Not measured Full data
Weirs Yarrawonga Weir Upstream Murray 124.7 m 13/04/2024 7:00 Not measured Not measured Not measured Not measured Not measured 0.00 mm 13/04/2024 7:00 Full data
Weirs Yarrawonga Weir Downstream Murray 1 m 13/04/2024 8:00 5071 ML/Day 13/04/2024 8:00 Not measured Not measured 17.2°C 13/04/2024 8:00 59.5 μS/cm 12/04/2024 8:00 Not measured Full data
River Gauge Yarrawonga Main Channel Murray 123.92 m 13/04/2024 7:00 Not measured Not measured 1020.4 ML/d13/04/2024 7:00 Not measured Not measured Not measured Full data
River Gauge Mulwala Canal Murray Not measured Not measured Not measured 3442.7 ML/d12/04/2024 8:00 Not measured Not measured Not measured Full data
River Gauge Tocumwal Murray 1.64 m 13/04/2024 7:00 4931 ML/Day 13/04/2024 7:00 Not measured Not measured 17.4°C 13/04/2024 7:00 56.8 μS/cm 13/04/2024 7:00 Not measured Full data
River Gauge Edward River Offtake Murray 2.07 m 13/04/2024 8:00 1092 ML/Day 13/04/2024 8:00 Not measured Not measured 17.4°C 13/04/2024 8:00 73.1 μS/cm 12/04/2024 8:00 Not measured Full data
River Gauge Gulpa Creek Offtake Murray 2.29 m 13/04/2024 8:00 251 ML/Day 13/04/2024 8:00 Not measured Not measured Not measured Not measured Not measured Full data
River Gauge Echuca Wharf Murray 86.8 m 13/04/2024 6:00 Not measured Not measured Not measured Not measured Not measured Not measured Full data
Weirs Torrumbarry Weir Downstream Murray 1.86 m 13/04/2024 7:00 5154 ML/Day 13/04/2024 7:00 Not measured Not measured 18.7°C 13/04/2024 7:00 99.7 μS/cm 13/04/2024 7:00 Not measured Full data
Weirs Torrumbarry Weir Upstream Murray 86.05 m 13/04/2024 7:00 Not measured 37 GL 12/04/2024 9:00 Not measured 18.9°C 12/04/2024 9:00 99.6 μS/cm 13/04/2024 6:00 0.00 mm 12/04/2024 9:00 Full data
River Gauge Torrumbarry Headworks Murray 84.97 m 13/04/2024 7:00 Not measured Not measured 1855.2 ML/d13/04/2024 8:00 Not measured Not measured Not measured Full data
River Gauge Stoney Crossing Murray 1.62 m 13/04/2024 8:00 965 ML/Day 13/04/2024 8:00 Not measured Not measured 17°C 13/04/2024 8:00 292.6 μS/cm 13/04/2024 8:00 Not measured Full data
River Gauge Swan Hill Murray 1.1 m 13/04/2024 7:00 4461 ML/Day 13/04/2024 7:00 Not measured Not measured 17.4°C 13/04/2024 7:00 132.8 μS/cm 13/04/2024 7:00 Not measured Full data
River Gauge Wakool Junction Murray 2.87 m 13/04/2024 7:00 6340 ML/Day 13/04/2024 7:00 Not measured Not measured 17.7°C 13/04/2024 7:00 155.6 μS/cm 13/04/2024 7:00 Not measured Full data
Weirs Euston Weir Upstream Murray 47.49 m 12/04/2024 9:00 Not measured 35 GL 12/04/2024 8:00 Not measured Not measured Not measured Not measured Full data
Weirs Euston Weir Downstream Murray 43.32 m 13/04/2024 7:00 7239 ML/Day 13/04/2024 7:00 Not measured Not measured 18°C 13/04/2024 7:00 147.8 μS/cm 13/04/2024 7:00 Not measured Full data
River Gauge Colignan Murray 2.03 m 13/04/2024 7:00 6632 ML/Day 13/04/2024 7:00 Not measured Not measured 17.7°C 13/04/2024 7:00 167.9 μS/cm 13/04/2024 7:00 Not measured Full data
Weirs Mildura Weir downstream Murray 30.9 m 13/04/2024 7:00 Not measured Not measured Not measured 18.9°C 13/04/2024 7:00 266.4 μS/cm 13/04/2024 7:00 Not measured Full data
Weirs Lock 9 Downstream Murray 24.47 m 13/04/2024 7:00 Not measured Not measured Not measured Not measured Not measured Not measured Full data
Weirs Lock 9 Upstream Murray 27.38 m 13/04/2024 7:00 Not measured Not measured Not measured 19.1°C 13/04/2024 7:00 394.7 μS/cm 13/04/2024 7:00 Not measured Full data
Weirs Lock 8 Upstream Murray 24.49 m 13/04/2024 7:00 Not measured Not measured Not measured 19.1°C 13/04/2024 7:00 448.2 μS/cm 13/04/2024 7:00 Not measured Full data
River Gauge Frenchman Creek Murray 27.36 m 12/04/2024 8:00 Not measured Not measured 1999.6 ML/d12/04/2024 8:00 Not measured Not measured Not measured Full data
Storage Lake Victoria Murray 24.49 m 13/04/2024 6:00 Not measured 395 GL 13/04/2024 6:00 Not measured 17.2°C 13/04/2024 6:00 291.1 μS/cm 13/04/2024 6:00 Not measured Full data
River Gauge Rufus River Murray 20.92 m 12/04/2024 8:00 Not measured Not measured 3490.2 ML/d12/04/2024 8:00 Not measured 306 μS/cm 13/04/2024 7:00 Not measured Full data
Weirs Lock 7 Downstream Murray 20.63 m 13/04/2024 7:00 Not measured Not measured Not measured Not measured Not measured Not measured Full data
Weirs Lock 7 Upstream Murray 22.05 m 13/04/2024 7:00 Not measured Not measured Not measured 19.3°C 13/04/2024 7:00 428.7 μS/cm 13/04/2024 7:00 Not measured Full data
River Gauge Flow to South Australia Murray Not measured Not measured Not measured 7113.2 ML/d12/04/2024 9:00 Not measured Not measured Not measured Full data
Weirs Lock 6 Downstream Murray 16.42 m 13/04/2024 7:00 Not measured Not measured Not measured Not measured Not measured Not measured Full data
Weirs Lock 6 Upstream Murray 19.28 m 13/04/2024 7:00 Not measured Not measured Not measured 19.2°C 13/04/2024 7:00 447 μS/cm 13/04/2024 7:00 Not measured Full data
Weirs Lock 5 Downstream Murray 13.39 m 13/04/2024 7:00 Not measured Not measured Not measured Not measured Not measured Not measured Full data
Weirs Lock 5 Upstream Murray 16.33 m 13/04/2024 7:00 Not measured Not measured Not measured 19°C 13/04/2024 7:00 431.7 μS/cm 13/04/2024 7:00 Not measured Full data
Weirs Lock 4 Downstream Murray 10.41 m 13/04/2024 7:00 Not measured Not measured Not measured Not measured Not measured Not measured Full data
Weirs Lock 4 Upstream Murray 13.24 m 13/04/2024 7:00 Not measured Not measured Not measured Not measured Not measured Not measured Full data
Weirs Lock 3 Downstream Murray 6.31 m 13/04/2024 7:00 Not measured Not measured Not measured Not measured Not measured Not measured Full data
Weirs Lock 3 Upstream Murray 9.81 m 13/04/2024 7:00 Not measured Not measured Not measured Not measured Not measured Not measured Full data
Weirs Lock 2 Downstream Murray 3.35 m 13/04/2024 7:00 Not measured Not measured Not measured Not measured Not measured Not measured Full data
Weirs Lock 2 Upstream Murray 6.14 m 13/04/2024 7:00 Not measured Not measured Not measured 18.8°C 13/04/2024 7:00 441.2 μS/cm 13/04/2024 7:00 Not measured Full data
River Gauge Morgan Downstream Murray Not measured Not measured Not measured 3106.3 ML/d13/04/2024 6:00 Not measured 440.9 μS/cm 13/04/2024 7:00 Not measured Full data
Weirs Lock 1 Downstream Murray 0.64 m 13/04/2024 7:00 Not measured Not measured 4623.2 ML/d12/04/2024 9:00 Not measured Not measured Not measured Full data
Weirs Lock 1 Upstream Murray 3.21 m 13/04/2024 7:00 Not measured Not measured Not measured 18.8°C 13/04/2024 7:00 453.3 μS/cm 13/04/2024 7:00 Not measured Full data
River Gauge Murray Bridge Murray 0.58 m 13/04/2024 7:00 Not measured Not measured Not measured 19.7°C 13/04/2024 7:00 393.2 μS/cm 13/04/2024 7:00 Not measured Full data
River Gauge Lake Alexandrina Murray 0.66 m 13/04/2024 8:00 Not measured 1551 GL 13/04/2024 8:00 Not measured Not measured 456.1 μS/cm 13/04/2024 7:00 Not measured Full data
River Gauge Lake Albert Murray 0.57 m 13/04/2024 8:00 Not measured 239 GL 13/04/2024 8:00 Not measured Not measured Not measured Not measured Full data
River Gauge Tauwitchere Barrage Murray 0.59 m 13/04/2024 7:00 Not measured Not measured Not measured Not measured Not measured Not measured Full data
River Gauge Mundoo Barrage Murray 0.58 m 12/04/2024 8:00 Not measured Not measured Not measured Not measured Not measured Not measured Full data
Weirs Wentworth Weir Murray 27.62 m 13/04/2024 8:00 Not measured Not measured 6224 ML/d12/04/2024 8:00 Not measured 317.9 μS/cm 12/04/2024 9:00 Not measured Full data
River Gauge Balranald Murrumbidgee 1.3 m 13/04/2024 8:00 937 ML/Day 13/04/2024 8:00 Not measured Not measured 17.5°C 13/04/2024 8:00 147.6 μS/cm 13/04/2024 8:00 Not measured Full data
River Gauge Peechelba Ovens 126.47 m 13/04/2024 7:00 566 ML/Day 13/04/2024 7:00 Not measured Not measured 16.2°C 13/04/2024 7:00 67.7 μS/cm 13/04/2024 7:00 Not measured Full data
River Gauge Edward Escape Wakool 0.88 m 13/04/2024 8:00 1052 ML/Day 13/04/2024 8:00 Not measured Not measured 17.5°C 13/04/2024 8:00 66.8 μS/cm 12/04/2024 8:00 Not measured Full data
River Gauge Wakool Canal Wakool 0.68 m 13/04/2024 8:00 Not measured Not measured 950 ML/d12/04/2024 9:00 Not measured Not measured Not measured Full data